Aviation Digital Data Service (ADDS)

Output produced by METARs form (2051 UTC 20 August 2019)
found at http://www.aviationweather.gov/metar/data/
 
Forecast for: VAAU (AURANGABAD AIRPO, IN)
Text: TAF VAAU 201100Z 2012/2021 25005KT 6000 FEW020 SCT025
Forecast period: 1200 to 1500 UTC 20 August 2019
Forecast type: FROM: standard forecast or significant change
Winds: from the WSW (250 degrees) at 6 MPH (5 knots; 2.6 m/s)
Visibility: 4 miles (6 km)
Ceiling: at least 12,000 feet AGL
Clouds: few clouds at 2000 feet AGL
scattered clouds at 2500 feet AGL
Weather: no significant weather forecast for this period
Text: BECMG 2015/2017 5000 HZ
Forecast period: 1500 to 2100 UTC 20 August 2019
Forecast type: BECOMING: Conditions expected to become as follows by 1700 UTC 20 August 2019
Winds: from the WSW (250 degrees) at 6 MPH (5 knots; 2.6 m/s)
Visibility: 3 miles (5 km)
Ceiling: at least 12,000 feet AGL
Clouds: few clouds at 2000 feet AGL
scattered clouds at 2500 feet AGL
Weather: HZ  (haze)
Text: TEMPO 2012/2021 2500 -SHRA SCT015 FEW025TCU BKN080
Forecast period: 1200 to 2100 UTC 20 August 2019
Forecast type: TEMPORARY: The following changes expected for less than half the time period
Visibility: 1.55 miles (2.49 km)
Ceiling: 8000 feet AGL
Clouds: scattered clouds at 1500 feet AGL
few clouds at 2500 feet AGL
broken clouds at 8000 feet AGL
Weather: -SHRA  (light rain showers)